createdAt,value
2023-02-21T00:02:01.842Z,4.10
2023-02-21T00:04:47.301Z,3.35
2023-02-21T00:07:34.508Z,3.42
2023-02-21T00:10:22.918Z,3.45
2023-02-21T00:13:08.912Z,3.70
2023-02-21T00:15:54.782Z,3.53
2023-02-21T00:18:40.678Z,3.67
2023-02-21T00:21:26.085Z,3.65
2023-02-21T00:24:13.221Z,3.50
2023-02-21T00:26:58.552Z,3.25
2023-02-21T00:29:47.029Z,3.55
2023-02-21T00:32:32.927Z,3.33
2023-02-21T00:35:18.573Z,3.40
2023-02-21T00:38:07.665Z,3.25
2023-02-21T00:40:54.701Z,3.60
2023-02-21T00:43:47.188Z,3.50
2023-02-21T00:46:32.689Z,3.90
2023-02-21T00:49:18.920Z,3.78
2023-02-21T00:52:04.831Z,3.80
2023-02-21T00:54:50.898Z,3.30
2023-02-21T00:57:38.189Z,3.92
2023-02-21T01:00:26.024Z,3.65
2023-02-21T01:03:11.482Z,3.78
2023-02-21T01:05:57.197Z,3.38
2023-02-21T01:08:43.108Z,2.97
2023-02-21T01:11:33.821Z,3.42
2023-02-21T01:14:25.199Z,3.50
2023-02-21T01:17:13.635Z,3.80
2023-02-21T01:19:59.785Z,3.25
2023-02-21T01:22:45.679Z,3.42
2023-02-21T01:25:31.401Z,3.25
2023-02-21T01:28:17.446Z,3.30
2023-02-21T01:31:04.619Z,3.53
2023-02-21T01:33:54.929Z,3.22
2023-02-21T01:36:40.668Z,3.08
2023-02-21T01:39:26.573Z,3.28
2023-02-21T01:42:12.377Z,3.30
2023-02-21T01:44:59.176Z,2.92
2023-02-21T01:47:46.524Z,3.35
2023-02-21T01:50:38.514Z,3.28
2023-02-21T01:53:28.648Z,2.97
2023-02-21T01:56:15.601Z,2.90
2023-02-21T01:59:03.398Z,2.80
2023-02-21T02:01:56.763Z,2.90
2023-02-21T02:04:44.069Z,3.13
2023-02-21T02:07:30.058Z,2.92
2023-02-21T02:10:17.033Z,3.08
2023-02-21T02:13:13.995Z,2.85
2023-02-21T02:15:48.553Z,2.75
2023-02-21T02:18:53.441Z,3.00
2023-02-21T02:21:50.386Z,2.95
2023-02-21T02:24:54.998Z,2.80
2023-02-21T02:27:56.648Z,2.58
2023-02-21T02:31:00.864Z,2.97
2023-02-21T02:34:10.370Z,2.83
2023-02-21T02:36:44.193Z,2.58
2023-02-21T02:39:24.292Z,2.63
2023-02-21T02:42:03.900Z,2.78
2023-02-21T02:44:40.361Z,2.60
2023-02-21T02:47:12.311Z,2.70
2023-02-21T02:49:45.477Z,2.95
2023-02-21T02:52:15.349Z,2.57
2023-02-21T02:54:43.513Z,2.60
2023-02-21T02:57:13.387Z,2.90
2023-02-21T02:59:45.929Z,2.20
2023-02-21T03:02:38.888Z,2.60
2023-02-21T03:05:22.860Z,2.77
2023-02-21T03:08:00.899Z,2.45
2023-02-21T03:10:39.302Z,2.75
2023-02-21T03:13:14.266Z,2.30
2023-02-21T03:15:50.755Z,2.38
2023-02-21T03:18:27.568Z,2.50
2023-02-21T03:20:59.404Z,2.60
2023-02-21T03:23:31.263Z,2.50
2023-02-21T03:26:02.752Z,2.40
2023-02-21T03:28:33.203Z,2.53
2023-02-21T03:31:04.571Z,2.58
2023-02-21T03:33:33.411Z,2.70
2023-02-21T03:36:02.137Z,2.30
2023-02-21T03:38:33.198Z,2.55
2023-02-21T03:41:01.397Z,2.65
2023-02-21T03:43:29.445Z,2.38
2023-02-21T03:45:57.668Z,2.40
2023-02-21T03:48:31.903Z,2.20
2023-02-21T03:51:01.063Z,2.10
2023-02-21T03:53:29.130Z,2.67
2023-02-21T03:55:58.667Z,2.10
2023-02-21T03:58:27.037Z,2.30
2023-02-21T04:00:58.236Z,2.38
2023-02-21T04:03:26.809Z,2.33
2023-02-21T04:05:55.094Z,2.10
2023-02-21T04:08:23.320Z,2.22
2023-02-21T04:10:53.516Z,2.17
2023-02-21T04:13:24.554Z,2.17
2023-02-21T04:15:52.857Z,2.60
2023-02-21T04:18:21.074Z,2.08
2023-02-21T04:20:49.518Z,2.13
2023-02-21T04:23:18.917Z,2.20
2023-02-21T04:25:47.128Z,2.20
2023-02-21T04:28:15.558Z,2.30
2023-02-21T04:30:45.039Z,2.40
2023-02-21T04:33:13.530Z,2.38
2023-02-21T04:35:41.736Z,2.42
2023-02-21T04:38:09.838Z,2.33
2023-02-21T04:40:37.928Z,2.45
2023-02-21T04:43:06.000Z,2.67
2023-02-21T04:45:34.097Z,2.35
2023-02-21T04:48:03.787Z,2.28
2023-02-21T04:50:32.898Z,2.22
2023-02-21T04:53:01.149Z,2.20
2023-02-21T04:55:29.226Z,2.33
2023-02-21T04:57:57.759Z,2.00
2023-02-21T05:00:25.949Z,2.38
2023-02-21T05:02:54.112Z,2.15
2023-02-21T05:05:23.773Z,1.90
2023-02-21T05:07:52.002Z,2.30
2023-02-21T05:10:20.577Z,2.17
2023-02-21T05:12:48.790Z,2.15
2023-02-21T05:15:16.968Z,2.40
2023-02-21T05:17:46.342Z,2.30
2023-02-21T05:20:14.582Z,2.03
2023-02-21T05:22:44.401Z,2.05
2023-02-21T05:25:17.131Z,2.20
2023-02-21T05:27:46.099Z,2.17
2023-02-21T05:30:16.692Z,2.30
2023-02-21T05:32:46.018Z,2.28
2023-02-21T05:35:16.390Z,2.20
2023-02-21T05:37:46.006Z,2.22
2023-02-21T05:40:18.699Z,1.92
2023-02-21T05:42:47.000Z,1.90
2023-02-21T05:45:15.138Z,1.90
2023-02-21T05:47:43.262Z,2.22
2023-02-21T05:50:11.467Z,1.95
2023-02-21T05:52:41.152Z,1.92
2023-02-21T05:55:12.401Z,2.05
2023-02-21T05:57:40.749Z,1.95
2023-02-21T06:00:17.019Z,2.35
2023-02-21T06:02:45.181Z,1.90
2023-02-21T06:05:14.039Z,1.95
2023-02-21T06:07:42.204Z,1.80
2023-02-21T06:10:11.913Z,1.70
2023-02-21T06:12:42.519Z,1.90
2023-02-21T06:15:12.830Z,1.70
2023-02-21T06:17:41.673Z,2.05
2023-02-21T06:20:16.692Z,2.00
2023-02-21T06:22:45.156Z,1.83
2023-02-21T06:25:15.005Z,1.88
2023-02-21T06:27:43.874Z,1.80
2023-02-21T06:30:15.606Z,1.83
2023-02-21T06:32:44.217Z,2.00
2023-02-21T06:35:12.257Z,2.00
2023-02-21T06:37:40.316Z,1.83
2023-02-21T06:40:09.189Z,2.30
2023-02-21T06:42:39.165Z,2.10
2023-02-21T06:45:07.777Z,2.13
2023-02-21T06:47:36.412Z,2.42
2023-02-21T06:50:10.305Z,2.20
2023-02-21T06:52:38.645Z,1.70
2023-02-21T06:55:08.019Z,2.03
2023-02-21T06:57:36.410Z,2.10
2023-02-21T07:00:11.713Z,1.98
2023-02-21T07:02:42.422Z,1.88
2023-02-21T07:05:10.912Z,1.90
2023-02-21T07:07:39.185Z,2.35
2023-02-21T07:10:13.398Z,2.47
2023-02-21T07:12:41.877Z,2.50
2023-02-21T07:15:11.534Z,2.75
2023-02-21T07:17:39.732Z,2.00
2023-02-21T07:20:09.962Z,2.33
2023-02-21T07:22:39.050Z,2.17
2023-02-21T07:25:07.425Z,2.30
2023-02-21T07:27:35.576Z,2.00
2023-02-21T07:30:05.470Z,2.10
2023-02-21T07:32:35.609Z,2.13
2023-02-21T07:35:03.814Z,2.20
2023-02-21T07:37:31.962Z,2.00
2023-02-21T07:40:00.564Z,2.30
2023-02-21T07:42:28.723Z,1.90
2023-02-21T07:44:58.057Z,2.08
2023-02-21T07:47:26.995Z,1.95
2023-02-21T07:49:56.770Z,1.70
2023-02-21T07:52:24.971Z,2.20
2023-02-21T07:54:54.995Z,1.90
2023-02-21T07:57:26.229Z,1.95
2023-02-21T07:59:54.930Z,1.90
2023-02-21T08:02:23.336Z,1.73
2023-02-21T08:04:52.133Z,2.22
2023-02-21T08:07:21.670Z,1.75
2023-02-21T08:09:51.466Z,2.10
2023-02-21T08:12:19.588Z,1.90
2023-02-21T08:14:47.869Z,2.10
2023-02-21T08:17:15.985Z,2.05
2023-02-21T08:19:44.189Z,1.77
2023-02-21T08:22:13.062Z,2.03
2023-02-21T08:24:42.567Z,1.77
2023-02-21T08:27:10.648Z,1.75
2023-02-21T08:29:40.585Z,1.75
2023-02-21T08:32:08.930Z,1.75
2023-02-21T08:34:37.089Z,1.70
2023-02-21T08:37:14.620Z,1.70
2023-02-21T08:39:46.023Z,1.50
2023-02-21T08:42:15.023Z,1.48
2023-02-21T08:44:45.255Z,1.52
2023-02-21T08:47:13.548Z,1.35
2023-02-21T08:49:42.591Z,1.70
2023-02-21T08:52:10.722Z,1.60
2023-02-21T08:54:38.826Z,1.50
2023-02-21T08:57:08.342Z,1.80
2023-02-21T08:59:38.695Z,1.50
2023-02-21T09:02:12.639Z,1.42
2023-02-21T09:04:40.746Z,1.60
2023-02-21T09:07:08.821Z,1.33
2023-02-21T09:09:38.666Z,1.60
2023-02-21T09:12:09.444Z,1.70
2023-02-21T09:14:38.063Z,1.70
2023-02-21T09:17:07.655Z,1.63
2023-02-21T09:19:36.717Z,1.38
2023-02-21T09:22:04.870Z,1.40
2023-02-21T09:24:32.927Z,1.50
2023-02-21T09:27:03.125Z,1.42
2023-02-21T09:29:45.487Z,1.40
2023-02-21T09:34:42.999Z,1.48
2023-02-21T09:37:11.126Z,1.33
2023-02-21T09:39:40.424Z,1.65
2023-02-21T09:42:11.614Z,1.65
2023-02-21T09:44:41.523Z,1.33
2023-02-21T09:47:14.732Z,1.58
2023-02-21T09:49:46.288Z,1.50
2023-02-21T09:52:24.658Z,1.60
2023-02-21T09:54:57.931Z,1.58
2023-02-21T09:57:26.194Z,1.60
2023-02-21T09:59:56.365Z,1.67
2023-02-21T10:02:39.767Z,1.38
2023-02-21T10:07:48.421Z,1.55
2023-02-21T10:10:21.870Z,1.38
2023-02-21T10:12:57.346Z,1.38
2023-02-21T10:15:39.549Z,1.55
2023-02-21T10:18:19.300Z,1.40
2023-02-21T10:20:52.702Z,1.58
2023-02-21T10:23:28.854Z,1.80
2023-02-21T10:26:02.918Z,1.42
2023-02-21T10:31:04.359Z,1.23
2023-02-21T10:33:36.666Z,1.42
2023-02-21T10:36:12.567Z,1.23
2023-02-21T10:38:44.137Z,1.50
2023-02-21T10:41:13.957Z,1.55
2023-02-21T10:43:46.485Z,1.30
2023-02-21T10:46:24.281Z,1.40
2023-02-21T10:48:54.977Z,1.27
2023-02-21T10:51:31.832Z,1.10
2023-02-21T10:54:21.964Z,1.25
2023-02-21T10:56:50.358Z,1.25
2023-02-21T10:59:24.161Z,1.40
2023-02-21T11:01:55.242Z,1.20
2023-02-21T11:04:34.583Z,1.23
2023-02-21T11:07:07.440Z,1.27
2023-02-21T11:09:41.501Z,1.30
2023-02-21T11:12:25.014Z,1.40
2023-02-21T11:17:36.546Z,1.20
2023-02-21T11:20:19.239Z,1.70
2023-02-21T11:22:49.818Z,1.10
2023-02-21T11:25:23.495Z,1.38
2023-02-21T11:28:03.906Z,1.27
2023-02-21T11:30:35.337Z,1.42
2023-02-21T11:33:06.895Z,1.10
2023-02-21T11:35:38.768Z,1.30
2023-02-21T11:38:09.958Z,1.23
2023-02-21T11:40:44.049Z,1.20
2023-02-21T11:43:19.013Z,1.25
2023-02-21T11:45:59.686Z,1.25
2023-02-21T11:48:34.721Z,1.08
2023-02-21T11:51:16.016Z,1.02
2023-02-21T11:53:45.304Z,1.25
2023-02-21T11:56:25.438Z,1.20
2023-02-21T11:59:02.965Z,1.30
2023-02-21T12:01:39.815Z,1.30
2023-02-21T12:04:27.272Z,1.15
2023-02-21T12:07:03.107Z,1.20
2023-02-21T12:09:39.783Z,1.40
2023-02-21T12:12:32.244Z,1.10
2023-02-21T12:15:23.451Z,0.90
2023-02-21T12:18:01.998Z,1.17
2023-02-21T12:21:05.748Z,1.17
2023-02-21T12:23:41.481Z,1.10
2023-02-21T12:26:28.749Z,1.17
2023-02-21T12:29:16.898Z,1.40
2023-02-21T12:32:00.694Z,1.42
2023-02-21T12:34:39.732Z,1.33
2023-02-21T12:37:22.841Z,1.10
2023-02-21T12:40:14.970Z,1.05
2023-02-21T12:43:00.064Z,1.40
2023-02-21T12:45:42.841Z,1.00
2023-02-21T12:48:19.320Z,1.10
2023-02-21T12:50:53.769Z,1.17
2023-02-21T12:53:27.532Z,1.20
2023-02-21T12:56:07.689Z,1.10
2023-02-21T12:58:42.031Z,1.10
2023-02-21T13:01:16.211Z,1.20
2023-02-21T13:03:55.244Z,1.20
2023-02-21T13:06:31.411Z,1.33
2023-02-21T13:09:13.998Z,1.17
2023-02-21T13:11:48.816Z,1.00
2023-02-21T13:14:21.768Z,0.90
2023-02-21T13:16:49.924Z,1.15
2023-02-21T13:19:18.383Z,1.23
2023-02-21T13:22:00.519Z,1.10
2023-02-21T13:24:45.730Z,1.38
2023-02-21T13:27:43.547Z,1.00
2023-02-21T13:30:21.430Z,1.23
2023-02-21T13:32:56.112Z,1.17
2023-02-21T13:35:32.551Z,1.13
2023-02-21T13:38:02.890Z,0.82
2023-02-21T13:40:39.577Z,1.02
2023-02-21T13:43:16.128Z,1.10
2023-02-21T13:45:45.641Z,1.20
2023-02-21T13:48:31.945Z,1.45
2023-02-21T13:51:01.726Z,1.10
2023-02-21T13:53:33.918Z,1.10
2023-02-21T13:56:20.475Z,0.98
2023-02-21T13:58:50.159Z,1.00
2023-02-21T14:01:43.062Z,1.00
2023-02-21T14:05:00.403Z,1.10
2023-02-21T14:07:49.300Z,1.13
2023-02-21T14:10:26.528Z,1.00
2023-02-21T14:13:01.072Z,1.00
2023-02-21T14:15:46.345Z,1.02
2023-02-21T14:18:25.903Z,1.30
2023-02-21T14:20:56.441Z,1.08
2023-02-21T14:23:33.557Z,1.17
2023-02-21T14:26:05.071Z,1.05
2023-02-21T14:29:03.350Z,1.00
2023-02-21T14:31:52.421Z,1.00
2023-02-21T14:34:33.822Z,1.08
2023-02-21T14:37:07.148Z,0.93
2023-02-21T14:39:42.005Z,0.90
2023-02-21T14:42:24.581Z,0.90
2023-02-21T14:45:09.279Z,1.20
2023-02-21T14:47:54.264Z,0.95
2023-02-21T14:50:37.313Z,1.00
2023-02-21T14:53:41.340Z,0.82
2023-02-21T14:56:39.135Z,1.00
2023-02-21T14:59:20.962Z,1.20
2023-02-21T15:01:59.610Z,1.00
2023-02-21T15:04:38.344Z,0.90
2023-02-21T15:07:18.803Z,1.00
2023-02-21T15:10:07.811Z,1.00
2023-02-21T15:12:43.057Z,1.00
2023-02-21T15:17:46.608Z,0.98
2023-02-21T15:20:18.852Z,0.95
2023-02-21T15:22:46.977Z,0.90
2023-02-21T15:25:20.850Z,0.98
2023-02-21T15:28:09.131Z,1.00
2023-02-21T15:30:40.745Z,0.93
2023-02-21T15:33:16.283Z,0.90
2023-02-21T15:35:50.201Z,1.00
2023-02-21T15:38:24.111Z,0.90
2023-02-21T15:40:55.685Z,0.90
2023-02-21T15:43:30.432Z,0.90
2023-02-21T15:46:02.955Z,0.98
2023-02-21T15:48:32.892Z,0.90
2023-02-21T15:51:05.736Z,1.00
2023-02-21T15:53:34.195Z,0.75
2023-02-21T15:56:21.840Z,0.93
2023-02-21T15:59:20.485Z,1.10
2023-02-21T16:02:17.066Z,1.00
2023-02-21T16:04:47.971Z,0.90
2023-02-21T16:07:20.951Z,1.10
2023-02-21T16:10:00.979Z,1.00
2023-02-21T16:12:34.268Z,0.90
2023-02-21T16:17:34.402Z,1.00
2023-02-21T16:20:16.613Z,0.82
2023-02-21T16:25:37.154Z,1.20
2023-02-21T16:28:13.556Z,1.00
2023-02-21T16:30:42.280Z,1.10
2023-02-21T16:33:13.893Z,1.23
2023-02-21T16:35:44.038Z,1.00
2023-02-21T16:38:15.574Z,0.95
2023-02-21T16:40:43.831Z,1.10
2023-02-21T16:43:18.620Z,1.00
2023-02-21T16:45:48.434Z,1.27
2023-02-21T16:48:21.781Z,1.00
2023-02-21T16:50:52.147Z,1.00
2023-02-21T16:53:21.642Z,1.00
2023-02-21T16:55:51.484Z,1.20
2023-02-21T16:58:26.380Z,1.20
2023-02-21T17:00:57.897Z,1.13
2023-02-21T17:03:28.478Z,1.40
2023-02-21T17:06:00.017Z,1.20
2023-02-21T17:08:30.006Z,1.35
2023-02-21T17:10:58.530Z,1.10
2023-02-21T17:13:28.009Z,1.20
2023-02-21T17:15:56.135Z,1.27
2023-02-21T17:18:24.315Z,1.27
2023-02-21T17:20:52.807Z,1.20
2023-02-21T17:23:23.052Z,1.15
2023-02-21T17:25:53.889Z,1.08
2023-02-21T17:28:22.368Z,1.20
2023-02-21T17:30:50.604Z,0.90
2023-02-21T17:33:19.095Z,1.30
2023-02-21T17:35:47.206Z,1.30
2023-02-21T17:38:15.813Z,1.38
2023-02-21T17:40:47.465Z,1.45
2023-02-21T17:43:17.107Z,1.35
2023-02-21T17:45:47.365Z,1.20
2023-02-21T17:48:15.939Z,1.50
2023-02-21T17:50:44.314Z,1.23
2023-02-21T17:53:12.902Z,1.13
2023-02-21T17:55:41.273Z,1.20
2023-02-21T17:58:11.201Z,1.30
2023-02-21T18:00:39.497Z,1.13
2023-02-21T18:03:09.427Z,1.35
2023-02-21T18:05:40.359Z,1.42
2023-02-21T18:08:08.851Z,1.35
2023-02-21T18:10:37.535Z,1.30
2023-02-21T18:13:06.063Z,1.50
2023-02-21T18:15:35.763Z,1.60
2023-02-21T18:18:07.172Z,1.38
2023-02-21T18:20:36.561Z,1.38
2023-02-21T18:23:06.549Z,1.30
2023-02-21T18:25:35.092Z,1.35
2023-02-21T18:28:03.423Z,1.30
2023-02-21T18:30:31.840Z,1.38
2023-02-21T18:33:01.340Z,1.50
2023-02-21T18:35:29.644Z,1.40
2023-02-21T18:37:58.423Z,1.35
2023-02-21T18:40:34.282Z,1.20
2023-02-21T18:43:02.741Z,2.60
2023-02-21T18:45:34.830Z,8.07
2023-02-21T18:48:06.159Z,11.77
2023-02-21T18:50:36.735Z,15.85
2023-02-21T18:53:05.795Z,17.42
2023-02-21T18:55:34.438Z,21.10
2023-02-21T18:58:03.358Z,19.88
2023-02-21T19:00:33.703Z,21.13
2023-02-21T19:03:02.608Z,21.88
2023-02-21T19:05:32.457Z,22.35
2023-02-21T19:08:01.911Z,19.30
2023-02-21T19:10:33.375Z,20.15
2023-02-21T19:13:02.199Z,19.50
2023-02-21T19:15:31.609Z,18.38
2023-02-21T19:18:00.617Z,18.13
2023-02-21T19:20:30.246Z,17.15
2023-02-21T19:23:00.109Z,16.38
2023-02-21T19:25:29.623Z,14.88
2023-02-21T19:28:00.560Z,15.23
2023-02-21T19:30:32.926Z,13.82
2023-02-21T19:33:02.238Z,12.52
2023-02-21T19:35:32.704Z,8.50
2023-02-21T19:38:04.764Z,12.43
2023-02-21T19:40:34.017Z,9.65
2023-02-21T19:43:02.737Z,10.95
2023-02-21T19:45:32.033Z,11.63
2023-02-21T19:48:00.698Z,11.10
2023-02-21T19:50:30.776Z,11.23
2023-02-21T19:52:59.891Z,10.48
2023-02-21T19:55:31.560Z,10.52
2023-02-21T19:58:00.335Z,9.93
2023-02-21T20:00:30.163Z,10.38
2023-02-21T20:02:58.611Z,10.35
2023-02-21T20:05:27.613Z,9.48
2023-02-21T20:07:56.075Z,9.40
2023-02-21T20:10:27.355Z,9.75
2023-02-21T20:12:57.641Z,10.05
2023-02-21T20:15:26.457Z,9.65
2023-02-21T20:17:54.869Z,9.20
2023-02-21T20:20:24.499Z,8.05
2023-02-21T20:22:53.787Z,8.80
2023-02-21T20:25:22.690Z,8.20
2023-02-21T20:27:51.523Z,7.85
2023-02-21T20:30:23.308Z,7.30
2023-02-21T20:32:53.388Z,7.45
2023-02-21T20:35:22.117Z,6.97
2023-02-21T20:37:51.143Z,7.15
2023-02-21T20:40:20.773Z,6.75
2023-02-21T20:42:49.160Z,6.70
2023-02-21T20:45:18.579Z,6.50
2023-02-21T20:47:48.525Z,5.93
2023-02-21T20:50:20.084Z,6.28
2023-02-21T20:52:48.750Z,5.78
2023-02-21T20:55:19.494Z,5.68
2023-02-21T20:57:48.065Z,5.43
2023-02-21T21:00:23.406Z,5.13
2023-02-21T21:02:54.044Z,5.28
2023-02-21T21:05:22.428Z,4.93
2023-02-21T21:07:51.160Z,5.00
2023-02-21T21:10:19.813Z,5.30
2023-02-21T21:12:49.678Z,4.53
2023-02-21T21:15:19.324Z,4.60
2023-02-21T21:17:48.236Z,4.40
2023-02-21T21:20:22.374Z,4.90
2023-02-21T21:22:51.290Z,4.88
2023-02-21T21:25:22.576Z,4.95
2023-02-21T21:27:52.014Z,4.90
2023-02-21T21:30:23.002Z,4.70
2023-02-21T21:32:51.206Z,4.47
2023-02-21T21:35:22.078Z,4.10
2023-02-21T21:37:50.948Z,4.30
2023-02-21T21:40:24.107Z,4.03
2023-02-21T21:42:54.255Z,4.07
2023-02-21T21:45:25.317Z,4.55
2023-02-21T21:47:58.447Z,3.78
2023-02-21T21:52:58.562Z,3.90
2023-02-21T21:55:29.198Z,2.85
2023-02-21T21:57:58.780Z,3.95
2023-02-21T22:00:29.251Z,4.38
2023-02-21T22:03:01.976Z,3.78
2023-02-21T22:05:32.987Z,3.92
2023-02-21T22:08:01.314Z,3.65
2023-02-21T22:10:30.584Z,4.38
2023-02-21T22:13:00.537Z,3.72
2023-02-21T22:15:30.851Z,3.53
2023-02-21T22:18:03.877Z,3.90
2023-02-21T22:20:37.573Z,3.88
2023-02-21T22:23:08.136Z,3.88
2023-02-21T22:25:37.758Z,3.80
2023-02-21T22:28:09.575Z,3.70
2023-02-21T22:30:39.131Z,3.63
2023-02-21T22:33:08.608Z,3.60
2023-02-21T22:35:38.165Z,3.85
2023-02-21T22:38:07.713Z,3.90
2023-02-21T22:40:36.484Z,3.85
2023-02-21T22:43:08.947Z,3.28
2023-02-21T22:45:38.396Z,3.72
2023-02-21T22:48:10.098Z,3.15
2023-02-21T22:50:40.279Z,3.88
2023-02-21T22:53:13.111Z,3.85
2023-02-21T22:55:41.332Z,3.28
2023-02-21T22:58:10.991Z,3.20
2023-02-21T23:00:39.426Z,3.75
2023-02-21T23:03:13.781Z,3.13
2023-02-21T23:05:44.723Z,3.33
2023-02-21T23:08:15.008Z,3.10
2023-02-21T23:10:43.794Z,3.72
2023-02-21T23:13:16.509Z,3.08
2023-02-21T23:15:45.902Z,3.25
2023-02-21T23:18:20.630Z,3.20
2023-02-21T23:20:53.053Z,3.28
2023-02-21T23:23:21.572Z,3.28
2023-02-21T23:25:49.721Z,3.20
2023-02-21T23:28:18.429Z,2.97
2023-02-21T23:30:48.923Z,3.38
2023-02-21T23:33:19.256Z,2.92
2023-02-21T23:35:49.445Z,2.63
2023-02-21T23:38:22.762Z,3.05
2023-02-21T23:40:56.189Z,3.13
2023-02-21T23:43:29.264Z,2.75
2023-02-21T23:45:58.606Z,2.80
2023-02-21T23:48:27.133Z,3.00
2023-02-21T23:50:57.680Z,3.22
2023-02-21T23:53:31.754Z,2.83
2023-02-21T23:56:00.912Z,2.80
2023-02-21T23:58:32.516Z,3.08
